LZTT/TAT METAR and TAF weather

Enter ICAO airport designator
Station Type Date Time Source
LZTT METAR 2019/06/27 10:00 UTC NOAA

LZTT 271000Z 26019KT 9999 FEW043 SCT060 29/18 Q1018 NOSIG


Station Type Date Time Source
LZTT Decoded METAR 2019/06/27 10:00 UTC NOAA

Poprad / Tatry, Slovakia (LZTT) 49-04N 020-15E 695M
Jun 27, 2019 - 06:00 AM EDT / 2019.06.27 1000 UTC
Wind: from the W (260 degrees) at 22 MPH (19 KT):0
Visibility: greater than 7 mile(s):0
Sky conditions: partly cloudy
Temperature: 84 F (29 C)
Dew Point: 64 F (18 C)
Relative Humidity: 51%
Pressure (altimeter): 30.06 in. Hg (1018 hPa)
ob: LZTT 271000Z 26019KT 9999 FEW043 SCT060 29/18 Q1018 NOSIG
cycle: 10

Station Type Date Time Source
LZTT TAF 2019/06/27 06:57 UTC NOAA

TAF LZTT 270500Z 2706/2806 26013KT 9999 FEW050
BECMG 2706/2708 PROB40
TEMPO 2708/2715 29020KT 4000 TSRA SCT045CB BKN055
BECMG 2718/2720 25004KT CAVOK

Example: see airport list